Time;durP1;ratioP1;P1;durP2;ratioP2;P2;SDS_P1;SDS_P2;PMS_P1;PMS_P2;Temp;Humidity;BMP_temperature;BMP_pressure;BME280_temperature;BME280_humidity;BME280_pressure;Samples;Min_cycle;Max_cycle;Signal;HPM_P1;HPM_P2
2022/12/22 03:25:54;;;;;;;39.40;27.50;;;7.20;99.90;;;;;;5037542;28;20220;-48
2022/12/22 03:28:25;;;;;;;38.60;26.77;;;7.20;99.90;;;;;;5052886;28;20334;-50
2022/12/22 03:30:55;;;;;;;37.60;24.77;;;7.20;99.90;;;;;;5052391;28;20641;-49
2022/12/22 03:33:25;;;;;;;39.03;27.67;;;7.20;99.90;;;;;;5052186;28;20231;-49
2022/12/22 03:35:53;;;;;;;38.07;27.67;;;7.30;99.90;;;;;;5052339;28;20709;-52
2022/12/22 03:38:21;;;;;;;36.80;26.37;;;7.30;99.90;;;;;;5049870;28;20227;-52
2022/12/22 03:40:49;;;;;;;38.40;26.70;;;7.40;99.90;;;;;;5052297;28;20235;-52
2022/12/22 03:49:10;;;;;;;41.70;28.73;;;7.30;99.90;;;;;;5050917;28;20239;-51
2022/12/22 03:51:42;;;;;;;36.70;26.53;;;7.30;99.90;;;;;;5051787;28;20224;-51
2022/12/22 03:54:12;;;;;;;41.73;28.93;;;7.30;99.90;;;;;;5052345;28;20683;-51
2022/12/22 03:56:41;;;;;;;40.37;29.03;;;7.30;99.90;;;;;;5051763;28;20239;-52
2022/12/22 03:59:09;;;;;;;39.00;28.10;;;7.30;99.90;;;;;;5050330;28;20234;-52
2022/12/22 04:01:40;;;;;;;37.40;27.37;;;7.30;99.90;;;;;;5051839;28;20236;-52
2022/12/22 04:04:12;;;;;;;41.13;28.23;;;7.30;99.90;;;;;;5050920;28;20224;-51
2022/12/22 04:06:42;;;;;;;40.80;26.60;;;7.30;99.90;;;;;;5051780;28;20687;-50
2022/12/22 04:09:11;;;;;;;37.97;26.80;;;7.30;99.90;;;;;;5052233;28;20235;-49
2022/12/22 04:14:28;;;;;;;37.67;25.97;;;7.30;99.90;;;;;;5052404;28;20251;-52
2022/12/22 04:17:02;;;;;;;38.77;26.13;;;7.30;99.90;;;;;;5052199;28;20230;-49
2022/12/22 04:19:34;;;;;;;37.03;25.10;;;7.30;99.90;;;;;;5052012;28;20664;-52
2022/12/22 04:22:04;;;;;;;36.57;25.97;;;7.30;99.90;;;;;;5052171;28;20646;-49
2022/12/22 04:24:33;;;;;;;34.23;24.30;;;7.30;99.90;;;;;;5052020;28;20575;-51
2022/12/22 04:27:02;;;;;;;34.33;25.37;;;7.30;99.90;;;;;;5051472;28;20223;-50
2022/12/22 04:29:34;;;;;;;35.67;25.57;;;7.40;99.90;;;;;;5051755;28;20211;-51
2022/12/22 04:32:04;;;;;;;35.00;24.83;;;7.30;99.90;;;;;;5051632;28;20281;-52
2022/12/22 04:34:34;;;;;;;35.87;25.20;;;7.30;99.90;;;;;;5051597;28;20231;-51
2022/12/22 04:37:02;;;;;;;38.97;26.13;;;7.30;99.90;;;;;;5051922;28;20680;-51
2022/12/22 04:39:43;;;;;;;38.23;26.17;;;7.30;99.90;;;;;;5052039;28;20235;-51
2022/12/22 04:42:11;;;;;;;36.03;24.37;;;7.30;99.90;;;;;;5051835;28;20326;-51
2022/12/22 04:44:39;;;;;;;40.10;26.87;;;7.30;99.90;;;;;;5051845;28;20220;-49
2022/12/22 04:47:07;;;;;;;36.83;26.77;;;7.40;99.90;;;;;;5052289;28;20232;-50
2022/12/22 04:49:37;;;;;;;36.43;25.63;;;7.30;99.90;;;;;;5051850;28;20242;-51
2022/12/22 04:52:05;;;;;;;35.73;25.90;;;7.30;99.90;;;;;;5052186;28;20224;-50
2022/12/22 04:54:33;;;;;;;39.27;26.93;;;7.30;99.90;;;;;;5051819;28;20220;-50
2022/12/22 04:57:01;;;;;;;39.87;26.43;;;7.30;99.90;;;;;;5050020;28;20236;-51
2022/12/22 04:59:29;;;;;;;40.93;27.70;;;7.40;99.90;;;;;;5055434;28;20227;-53
2022/12/22 05:01:57;;;;;;;41.77;27.43;;;7.40;99.90;;;;;;5054850;28;20239;-50
2022/12/22 05:04:26;;;;;;;39.77;27.57;;;7.40;99.90;;;;;;5055090;28;20230;-47
2022/12/22 05:06:55;;;;;;;43.07;28.07;;;7.40;99.90;;;;;;5055393;28;20224;-51
2022/12/22 05:09:23;;;;;;;42.63;27.90;;;7.40;99.90;;;;;;5055460;28;20684;-50
2022/12/22 05:11:51;;;;;;;45.33;27.93;;;7.40;99.90;;;;;;5055214;28;20243;-51
2022/12/22 05:14:19;;;;;;;43.50;28.80;;;7.50;99.90;;;;;;5054756;28;20246;-51
2022/12/22 05:16:47;;;;;;;43.10;26.53;;;7.40;99.90;;;;;;5055118;28;20239;-51
2022/12/22 05:19:15;;;;;;;43.33;26.17;;;7.50;99.90;;;;;;5054618;28;20330;-50
2022/12/22 05:21:44;;;;;;;44.97;28.80;;;7.60;99.90;;;;;;5054766;28;20228;-52
2022/12/22 05:24:14;;;;;;;48.53;30.47;;;7.50;99.90;;;;;;5054792;28;20228;-52
2022/12/22 05:26:42;;;;;;;49.40;30.00;;;7.50;99.90;;;;;;5050708;28;20723;-48
2022/12/22 05:29:10;;;;;;;51.57;29.10;;;7.50;99.90;;;;;;5046923;28;20216;-49
2022/12/22 05:31:38;;;;;;;47.27;30.13;;;7.50;99.90;;;;;;5054346;28;20232;-50
2022/12/22 05:34:14;;;;;;;48.50;31.07;;;7.50;99.90;;;;;;5047343;28;20216;-53
2022/12/22 05:36:42;;;;;;;48.70;30.20;;;7.50;99.90;;;;;;5054465;28;20216;-51
2022/12/22 05:39:10;;;;;;;45.07;28.33;;;7.50;99.90;;;;;;5034728;28;20244;-52
2022/12/22 05:41:39;;;;;;;51.33;31.23;;;7.60;99.90;;;;;;5034828;28;20593;-51
2022/12/22 05:44:07;;;;;;;51.73;30.47;;;7.50;99.90;;;;;;5040441;28;20230;-51
2022/12/22 05:46:35;;;;;;;46.53;30.03;;;7.60;99.90;;;;;;5053152;28;20286;-49
2022/12/22 05:49:03;;;;;;;49.30;30.27;;;7.60;99.90;;;;;;5054246;28;20224;-53
2022/12/22 05:51:31;;;;;;;50.90;31.37;;;7.60;99.90;;;;;;5053902;28;20239;-52
2022/12/22 05:53:59;;;;;;;51.30;31.40;;;7.60;99.90;;;;;;5054568;28;20227;-50
2022/12/22 05:56:27;;;;;;;48.87;30.27;;;7.50;99.90;;;;;;5054355;28;20228;-51
2022/12/22 05:58:57;;;;;;;52.13;30.50;;;7.50;99.90;;;;;;5054134;28;20614;-52
2022/12/22 06:01:25;;;;;;;51.10;30.83;;;7.60;99.90;;;;;;5053787;28;20240;-51
2022/12/22 06:03:53;;;;;;;49.67;29.63;;;7.60;99.90;;;;;;5053982;28;20232;-52
2022/12/22 06:06:27;;;;;;;51.13;30.43;;;7.60;99.90;;;;;;5053937;28;20302;-49
2022/12/22 06:08:55;;;;;;;46.70;29.43;;;7.60;99.90;;;;;;5054291;28;20224;-52
2022/12/22 06:11:23;;;;;;;54.20;31.10;;;7.50;99.90;;;;;;5054331;28;20687;-50
2022/12/22 06:13:51;;;;;;;56.10;31.90;;;7.60;99.90;;;;;;5054297;28;20592;-51
2022/12/22 06:16:21;;;;;;;50.53;30.17;;;7.60;99.90;;;;;;5052642;28;20220;-52
2022/12/22 06:18:49;;;;;;;55.50;31.90;;;7.70;99.90;;;;;;5053550;28;20695;-51
2022/12/22 06:21:17;;;;;;;47.57;29.00;;;7.80;99.90;;;;;;5054218;28;20228;-51
2022/12/22 06:23:45;;;;;;;46.43;29.90;;;7.80;99.90;;;;;;5053734;28;20240;-51
2022/12/22 06:26:13;;;;;;;52.50;31.00;;;7.70;99.90;;;;;;5053912;28;20228;-47
2022/12/22 06:28:41;;;;;;;51.23;30.43;;;7.90;99.90;;;;;;5049918;28;20237;-51
2022/12/22 06:31:09;;;;;;;45.43;29.50;;;7.80;99.90;;;;;;5039182;28;20239;-51
2022/12/22 06:33:39;;;;;;;49.03;29.97;;;7.70;99.90;;;;;;5053050;28;20216;-51
2022/12/22 06:36:08;;;;;;;48.60;30.50;;;7.60;99.90;;;;;;5053399;28;20232;-52
2022/12/22 06:38:36;;;;;;;45.37;28.20;;;7.50;99.90;;;;;;5053164;28;20215;-52
2022/12/22 06:41:04;;;;;;;49.67;30.37;;;7.60;99.90;;;;;;5053561;28;20228;-51
2022/12/22 06:43:31;;;;;;;52.07;29.40;;;7.70;99.90;;;;;;5053819;28;20252;-51
2022/12/22 06:45:59;;;;;;;49.83;30.07;;;7.70;99.90;;;;;;5051836;28;20224;-49
2022/12/22 06:48:28;;;;;;;48.30;30.43;;;7.60;99.90;;;;;;5053243;28;20228;-51
2022/12/22 06:50:59;;;;;;;49.80;31.47;;;7.60;99.90;;;;;;5053127;28;20688;-50
2022/12/22 06:53:27;;;;;;;45.40;26.60;;;7.60;99.90;;;;;;5052912;28;20220;-50
2022/12/22 06:55:55;;;;;;;50.60;30.67;;;7.70;99.90;;;;;;5052992;28;20579;-51
2022/12/22 06:58:23;;;;;;;49.10;30.27;;;7.60;99.90;;;;;;5052470;28;20230;-51
2022/12/22 07:00:55;;;;;;;50.60;30.83;;;7.60;99.90;;;;;;5052623;28;20231;-50
2022/12/22 07:03:23;;;;;;;49.07;30.00;;;7.60;99.90;;;;;;5052803;28;20224;-50
2022/12/22 07:05:51;;;;;;;49.13;30.90;;;7.70;99.90;;;;;;5053096;28;20281;-49
2022/12/22 07:08:21;;;;;;;55.37;33.40;;;7.70;99.90;;;;;;5052743;28;20723;-51
2022/12/22 07:10:58;;;;;;;52.37;32.30;;;7.70;99.90;;;;;;5052995;28;20637;-52
2022/12/22 07:13:28;;;;;;;55.30;32.73;;;7.70;99.90;;;;;;5053084;28;20234;-49
2022/12/22 07:15:56;;;;;;;49.07;29.23;;;7.70;99.90;;;;;;5054217;28;20583;-51
2022/12/22 07:18:29;;;;;;;55.83;32.07;;;7.70;99.90;;;;;;5033941;28;20339;-50
2022/12/22 07:20:58;;;;;;;48.33;29.80;;;7.80;99.90;;;;;;5052546;28;20676;-52
2022/12/22 07:23:27;;;;;;;48.43;29.63;;;7.70;99.90;;;;;;5052758;28;20286;-48
2022/12/22 07:25:56;;;;;;;43.07;26.73;;;7.70;99.90;;;;;;5052778;28;20234;-50
2022/12/22 07:28:24;;;;;;;46.37;28.63;;;7.70;99.90;;;;;;5048540;28;20679;-51
2022/12/22 07:30:54;;;;;;;46.63;28.10;;;7.70;99.90;;;;;;5051702;28;20318;-48
2022/12/22 07:33:22;;;;;;;38.43;23.67;;;7.80;99.90;;;;;;5052489;28;20232;-48
2022/12/22 07:36:01;;;;;;;43.00;26.23;;;7.80;99.90;;;;;;5052099;28;20243;-52
2022/12/22 07:38:32;;;;;;;44.60;26.10;;;7.70;99.90;;;;;;5045811;28;20236;-53
2022/12/22 07:41:00;;;;;;;41.80;25.47;;;7.80;99.90;;;;;;5059336;28;20702;-50
2022/12/22 07:43:32;;;;;;;37.40;24.00;;;7.70;99.90;;;;;;5063627;28;20584;-51
2022/12/22 07:46:00;;;;;;;37.00;22.80;;;7.70;99.90;;;;;;5061230;28;20242;-51
2022/12/22 07:51:13;;;;;;;37.93;24.60;;;7.80;99.90;;;;;;5064488;28;20238;-50
2022/12/22 07:53:43;;;;;;;35.10;23.27;;;7.70;99.90;;;;;;5064715;28;20223;-52
2022/12/22 07:56:11;;;;;;;35.13;22.70;;;7.70;99.90;;;;;;5066553;28;20227;-51
2022/12/22 07:58:39;;;;;;;35.17;22.17;;;7.70;99.90;;;;;;5064811;28;20229;-48
2022/12/22 08:01:07;;;;;;;36.40;23.73;;;7.70;99.90;;;;;;5065109;28;20238;-50
2022/12/22 08:03:35;;;;;;;33.03;21.47;;;7.70;99.90;;;;;;5064470;28;20235;-50
2022/12/22 08:06:04;;;;;;;39.20;22.73;;;7.80;99.90;;;;;;5065439;28;20230;-51
2022/12/22 08:08:33;;;;;;;34.70;21.50;;;7.80;99.90;;;;;;5063086;28;20219;-51
2022/12/22 08:11:03;;;;;;;37.30;22.60;;;7.90;99.90;;;;;;5063514;28;20620;-53
2022/12/22 08:13:31;;;;;;;33.80;21.33;;;7.90;99.90;;;;;;5064433;28;20603;-54
2022/12/22 08:16:03;;;;;;;33.47;22.63;;;7.80;99.90;;;;;;5065612;28;20220;-53
2022/12/22 08:18:32;;;;;;;35.00;22.53;;;7.80;99.90;;;;;;5063627;28;20239;-53
2022/12/22 08:21:00;;;;;;;33.00;22.07;;;7.90;99.90;;;;;;5066261;28;20227;-51
2022/12/22 08:23:28;;;;;;;35.33;22.93;;;7.90;99.90;;;;;;5064843;28;20618;-52
2022/12/22 08:26:01;;;;;;;35.93;23.53;;;7.80;99.90;;;;;;5065895;28;20235;-51
2022/12/22 08:28:33;;;;;;;35.97;24.20;;;7.90;99.90;;;;;;5061073;28;20239;-48
2022/12/22 08:31:03;;;;;;;35.03;23.30;;;7.80;99.90;;;;;;5063311;28;20730;-49
2022/12/22 08:33:31;;;;;;;35.90;23.83;;;7.80;99.90;;;;;;5066698;28;20298;-53
2022/12/22 08:36:00;;;;;;;42.27;23.77;;;7.80;99.90;;;;;;5067355;28;20238;-54
2022/12/22 08:38:36;;;;;;;37.13;23.90;;;7.80;99.90;;;;;;5064812;28;20226;-51
2022/12/22 08:41:04;;;;;;;37.37;24.37;;;7.80;99.90;;;;;;5067234;28;20226;-47
2022/12/22 08:43:33;;;;;;;37.13;23.77;;;7.80;99.90;;;;;;5065690;28;20227;-51
2022/12/22 08:46:02;;;;;;;41.07;25.40;;;7.80;99.90;;;;;;5067435;28;20219;-52
2022/12/22 08:48:30;;;;;;;40.77;26.73;;;7.80;99.90;;;;;;5069163;28;20759;-52
2022/12/22 08:50:58;;;;;;;43.67;26.60;;;7.80;99.90;;;;;;5069972;28;20578;-51
2022/12/22 08:53:26;;;;;;;40.47;25.63;;;7.80;99.90;;;;;;5068018;28;20219;-50
2022/12/22 08:56:14;;;;;;;42.57;25.93;;;7.80;99.90;;;;;;5068908;28;20273;-51
2022/12/22 08:58:44;;;;;;;43.63;26.57;;;7.90;99.90;;;;;;5068073;28;20234;-50
2022/12/22 09:01:16;;;;;;;38.47;24.67;;;7.80;99.90;;;;;;5068123;28;20732;-49
2022/12/22 09:03:48;;;;;;;40.67;25.03;;;7.90;99.90;;;;;;5068221;28;20285;-51
2022/12/22 09:06:17;;;;;;;43.90;25.93;;;7.90;99.90;;;;;;5067838;28;20223;-52
2022/12/22 09:08:45;;;;;;;37.10;23.17;;;7.90;99.90;;;;;;5063291;28;20230;-53
2022/12/22 09:11:14;;;;;;;43.50;26.20;;;8.00;99.90;;;;;;5067353;28;20219;-54
2022/12/22 09:13:43;;;;;;;44.37;25.83;;;8.10;99.90;;;;;;5067767;28;20272;-51
2022/12/22 09:16:11;;;;;;;42.60;25.83;;;8.20;99.90;;;;;;5068071;28;20242;-51
2022/12/22 09:18:39;;;;;;;40.00;24.50;;;8.10;99.90;;;;;;5066917;28;20239;-48
2022/12/22 09:21:07;;;;;;;44.60;27.37;;;8.20;99.90;;;;;;5069323;28;20246;-52
2022/12/22 09:23:35;;;;;;;43.17;25.97;;;8.10;99.90;;;;;;5068378;28;20236;-51
2022/12/22 09:26:07;;;;;;;42.27;25.60;;;8.10;99.90;;;;;;5067182;28;20222;-51
2022/12/22 09:28:36;;;;;;;41.40;25.20;;;8.10;99.90;;;;;;5068481;28;20235;-49
2022/12/22 09:31:06;;;;;;;39.93;24.03;;;8.00;99.90;;;;;;5066397;28;20239;-50
2022/12/22 09:33:36;;;;;;;39.97;23.73;;;8.10;99.90;;;;;;5066368;28;20904;-52
2022/12/22 09:36:06;;;;;;;44.80;24.67;;;8.10;99.90;;;;;;5068267;28;20215;-48
2022/12/22 09:38:36;;;;;;;44.57;25.03;;;8.10;99.90;;;;;;5067082;28;20706;-51
2022/12/22 09:41:09;;;;;;;41.17;25.00;;;8.10;99.90;;;;;;5068624;28;20232;-52
2022/12/22 09:43:37;;;;;;;39.97;23.87;;;8.10;99.90;;;;;;5066482;28;20227;-51
2022/12/22 09:46:14;;;;;;;40.03;23.50;;;8.10;99.90;;;;;;5068152;28;20722;-52
2022/12/22 09:48:42;;;;;;;40.03;23.03;;;8.20;99.90;;;;;;5068435;28;20258;-49
2022/12/22 09:51:12;;;;;;;40.17;23.83;;;8.20;99.90;;;;;;5068645;28;20697;-51
2022/12/22 09:53:41;;;;;;;40.47;22.83;;;8.20;99.90;;;;;;5068438;28;20691;-51
2022/12/22 09:56:13;;;;;;;36.33;21.30;;;8.20;99.90;;;;;;5066753;28;20227;-52
2022/12/22 09:58:42;;;;;;;40.53;24.37;;;8.20;99.90;;;;;;5067864;28;20580;-51
2022/12/22 10:01:26;;;;;;;38.63;22.17;;;8.20;99.90;;;;;;5067781;28;20234;-53
2022/12/22 10:04:00;;;;;;;39.50;22.90;;;8.10;99.90;;;;;;5049559;28;20235;-53
2022/12/22 10:06:35;;;;;;;37.77;21.87;;;8.10;99.90;;;;;;5067922;28;20234;-50
2022/12/22 10:09:19;;;;;;;36.97;22.23;;;8.20;99.90;;;;;;5066932;28;20222;-51
2022/12/22 10:12:14;;;;;;;35.87;21.53;;;8.30;99.90;;;;;;5048782;28;20223;-49
2022/12/22 10:14:44;;;;;;;40.03;21.80;;;8.30;99.90;;;;;;5066079;28;20227;-52
2022/12/22 10:17:19;;;;;;;36.97;21.47;;;8.30;99.90;;;;;;5068150;28;20227;-51
2022/12/22 10:19:48;;;;;;;36.97;21.10;;;8.40;99.90;;;;;;5065416;28;20308;-52
2022/12/22 10:22:28;;;;;;;37.73;22.63;;;8.50;99.90;;;;;;5065939;28;20223;-52
2022/12/22 10:24:56;;;;;;;36.27;23.00;;;8.50;99.90;;;;;;5067923;28;20915;-52
2022/12/22 10:27:29;;;;;;;34.70;21.37;;;8.50;99.90;;;;;;5065430;28;20215;-49
2022/12/22 10:30:19;;;;;;;39.70;21.63;;;8.50;99.90;;;;;;5067749;28;20266;-51
2022/12/22 10:33:03;;;;;;;36.90;21.80;;;8.50;99.90;;;;;;5064701;28;20227;-52
2022/12/22 10:35:44;;;;;;;34.70;20.90;;;8.50;99.90;;;;;;5067348;28;20679;-51
2022/12/22 10:38:16;;;;;;;34.43;20.73;;;8.50;99.90;;;;;;5067987;28;20702;-48
2022/12/22 10:40:50;;;;;;;34.37;20.37;;;8.40;99.90;;;;;;5065505;28;20223;-50
2022/12/22 10:43:29;;;;;;;36.03;21.80;;;8.40;99.90;;;;;;5067479;28;20227;-51
2022/12/22 10:45:58;;;;;;;36.20;21.43;;;8.40;99.90;;;;;;5066206;28;20227;-52
2022/12/22 10:48:31;;;;;;;34.40;20.03;;;8.40;99.90;;;;;;5067450;28;20276;-51
2022/12/22 10:51:00;;;;;;;35.57;20.83;;;8.40;99.90;;;;;;5067676;28;20227;-49
2022/12/22 10:53:47;;;;;;;35.50;20.97;;;8.40;99.90;;;;;;5066582;28;20219;-51
2022/12/22 10:56:29;;;;;;;35.93;21.27;;;8.40;99.90;;;;;;5066923;28;20238;-54
2022/12/22 10:59:12;;;;;;;35.13;21.13;;;8.50;99.90;;;;;;5066777;28;20219;-51
2022/12/22 11:01:40;;;;;;;38.43;22.17;;;8.60;99.90;;;;;;5063522;28;20224;-51
2022/12/22 11:04:21;;;;;;;33.80;20.73;;;8.70;99.90;;;;;;5066507;28;20579;-51
2022/12/22 11:06:49;;;;;;;33.27;19.83;;;8.80;99.90;;;;;;5064733;28;20223;-50
2022/12/22 11:09:18;;;;;;;34.63;20.47;;;8.80;99.90;;;;;;5066859;28;20234;-53
2022/12/22 11:12:12;;;;;;;34.70;21.83;;;9.00;99.90;;;;;;5067102;28;20223;-51
2022/12/22 11:14:50;;;;;;;35.27;21.73;;;9.30;99.90;;;;;;5066137;28;20219;-51
2022/12/22 11:17:25;;;;;;;35.17;20.60;;;9.30;99.90;;;;;;5066960;28;20218;-51
2022/12/22 11:20:14;;;;;;;35.97;22.83;;;9.20;99.90;;;;;;5062515;28;20737;-49
2022/12/22 11:22:50;;;;;;;33.73;21.13;;;9.30;99.90;;;;;;5065388;28;20222;-52
2022/12/22 11:25:29;;;;;;;32.70;21.83;;;9.30;99.90;;;;;;5065216;28;20223;-53
2022/12/22 11:28:12;;;;;;;33.03;20.60;;;9.30;99.90;;;;;;5065879;28;20234;-51
2022/12/22 11:30:50;;;;;;;29.03;19.43;;;9.30;99.90;;;;;;5066413;28;20250;-52
2022/12/22 11:33:31;;;;;;;28.77;20.47;;;9.10;99.90;;;;;;5063801;28;20234;-54
2022/12/22 11:36:04;;;;;;;32.53;20.80;;;9.10;99.90;;;;;;5066276;28;20224;-49
2022/12/22 11:38:45;;;;;;;30.73;19.90;;;9.30;99.90;;;;;;5062895;28;20230;-51
2022/12/22 11:41:28;;;;;;;26.17;18.27;;;9.40;99.90;;;;;;5066506;28;20764;-52
2022/12/22 11:44:25;;;;;;;25.07;18.57;;;9.50;99.90;;;;;;5066623;28;20249;-50
2022/12/22 11:47:02;;;;;;;27.13;18.37;;;9.60;99.90;;;;;;5062209;28;20238;-50
2022/12/22 11:50:05;;;;;;;22.97;15.33;;;9.70;99.90;;;;;;5063841;28;20215;-50
2022/12/22 11:53:07;;;;;;;22.33;15.30;;;9.40;99.90;;;;;;5061396;28;20703;-53
2022/12/22 11:55:40;;;;;;;23.30;14.73;;;9.40;99.90;;;;;;5065825;28;20710;-50
2022/12/22 11:58:42;;;;;;;21.07;13.93;;;9.50;99.90;;;;;;5063400;28;20598;-52
2022/12/22 12:01:32;;;;;;;22.57;14.90;;;9.30;99.90;;;;;;5065717;28;20583;-50
2022/12/22 12:04:26;;;;;;;21.53;14.43;;;9.40;99.90;;;;;;5066195;28;20223;-52
2022/12/22 12:07:16;;;;;;;19.90;13.83;;;9.30;99.90;;;;;;5069231;28;20235;-51
2022/12/22 12:10:02;;;;;;;22.00;14.20;;;9.40;99.90;;;;;;5066673;28;20682;-55
2022/12/22 12:12:40;;;;;;;24.90;15.67;;;9.40;99.90;;;;;;5063214;28;20747;-55
2022/12/22 12:15:24;;;;;;;24.90;14.70;;;9.40;99.90;;;;;;5065049;28;20226;-49
2022/12/22 12:18:20;;;;;;;27.50;16.03;;;9.30;99.90;;;;;;5069146;28;20215;-54
2022/12/22 12:21:00;;;;;;;27.40;15.60;;;9.20;99.90;;;;;;5066963;28;20223;-54
2022/12/22 12:24:05;;;;;;;25.37;15.33;;;9.20;99.90;;;;;;5067378;28;20294;-49
2022/12/22 12:26:45;;;;;;;22.27;14.27;;;9.30;99.90;;;;;;5060954;28;20232;-53
2022/12/22 12:29:17;;;;;;;25.50;15.00;;;9.40;99.90;;;;;;5062673;28;20223;-52
2022/12/22 12:31:50;;;;;;;20.60;14.00;;;9.50;99.90;;;;;;5061726;28;20258;-54
2022/12/22 12:34:20;;;;;;;23.10;14.60;;;9.60;99.90;;;;;;5062870;28;20231;-54
2022/12/22 12:36:56;;;;;;;19.03;13.37;;;9.70;99.90;;;;;;5064666;28;20220;-53
2022/12/22 12:39:30;;;;;;;24.30;13.00;;;9.80;99.90;;;;;;5064531;28;20310;-51
2022/12/22 12:42:13;;;;;;;20.27;12.00;;;9.80;99.90;;;;;;5063826;28;20222;-52
2022/12/22 12:44:41;;;;;;;21.27;12.40;;;9.60;99.90;;;;;;5061752;28;20231;-52
2022/12/22 12:47:25;;;;;;;21.83;12.20;;;9.70;99.90;;;;;;5067089;28;20698;-51
2022/12/22 12:50:26;;;;;;;20.60;10.97;;;9.60;99.90;;;;;;5070106;28;20248;-52
2022/12/22 12:53:17;;;;;;;20.03;11.40;;;9.50;99.90;;;;;;5066402;28;20710;-52
2022/12/22 12:56:00;;;;;;;19.57;10.07;;;9.50;99.90;;;;;;5068630;28;20223;-52
2022/12/22 12:58:48;;;;;;;23.47;11.07;;;9.50;99.90;;;;;;5067042;28;20227;-51
2022/12/22 13:01:52;;;;;;;21.17;10.70;;;9.50;99.90;;;;;;5066888;28;20223;-53
2022/12/22 13:05:11;;;;;;;15.53;10.13;;;9.50;99.90;;;;;;5065808;28;20239;-51
2022/12/22 13:08:19;;;;;;;21.10;10.80;;;9.50;99.90;;;;;;5068065;28;20690;-50
2022/12/22 13:11:22;;;;;;;18.77;10.47;;;9.40;99.90;;;;;;5063474;28;20230;-53
2022/12/22 13:14:10;;;;;;;19.20;10.10;;;9.40;99.90;;;;;;5068086;28;20268;-52
2022/12/22 13:16:39;;;;;;;13.90;8.97;;;9.40;99.90;;;;;;5067529;28;20318;-51
2022/12/22 13:19:26;;;;;;;18.37;9.70;;;9.40;99.90;;;;;;5068523;28;20250;-52
2022/12/22 13:21:56;;;;;;;19.60;8.47;;;9.40;99.90;;;;;;5068928;28;20219;-51
2022/12/22 13:24:30;;;;;;;18.67;9.07;;;9.40;99.90;;;;;;5068221;28;20314;-51
2022/12/22 13:27:06;;;;;;;18.83;8.30;;;9.40;99.90;;;;;;5066984;28;20562;-51
2022/12/22 13:29:45;;;;;;;13.00;7.33;;;9.40;99.90;;;;;;5066510;28;20215;-51
2022/12/22 13:32:23;;;;;;;17.03;8.00;;;9.40;99.90;;;;;;5063017;28;20576;-50
2022/12/22 13:35:04;;;;;;;14.57;7.53;;;9.40;99.90;;;;;;5066975;28;20231;-51
2022/12/22 13:37:53;;;;;;;17.03;8.10;;;9.40;99.90;;;;;;5068318;28;20216;-51
2022/12/22 13:40:25;;;;;;;20.00;7.23;;;9.40;99.90;;;;;;5066702;28;20327;-51
2022/12/22 13:42:55;;;;;;;19.03;8.13;;;9.30;99.90;;;;;;5067419;28;20249;-52
2022/12/22 13:45:32;;;;;;;16.70;8.33;;;9.20;99.90;;;;;;5067924;28;20231;-51
2022/12/22 13:48:14;;;;;;;14.60;8.07;;;9.10;99.90;;;;;;5067848;28;20238;-51
2022/12/22 13:50:45;;;;;;;14.20;7.47;;;9.00;99.90;;;;;;5060818;28;20236;-49
2022/12/22 13:53:19;;;;;;;12.77;7.07;;;8.90;99.90;;;;;;5062045;28;20223;-50
2022/12/22 13:56:14;;;;;;;14.37;7.10;;;8.90;99.90;;;;;;5061374;28;20224;-53
2022/12/22 13:58:44;;;;;;;12.57;7.33;;;8.80;99.90;;;;;;5061207;28;20235;-49
2022/12/22 14:01:17;;;;;;;18.30;7.17;;;8.80;99.90;;;;;;5062304;28;20246;-51
2022/12/22 14:03:48;;;;;;;15.20;7.30;;;8.70;99.90;;;;;;5062252;28;20239;-51
2022/12/22 14:06:30;;;;;;;13.80;6.93;;;8.60;99.90;;;;;;5063016;28;20238;-51
2022/12/22 14:09:16;;;;;;;11.90;6.67;;;8.60;99.90;;;;;;5061719;28;20237;-50
2022/12/22 14:11:50;;;;;;;16.33;7.03;;;8.50;99.90;;;;;;5062915;28;20591;-52
2022/12/22 14:14:24;;;;;;;11.97;6.23;;;8.40;99.90;;;;;;5061367;28;20289;-50
2022/12/22 14:16:54;;;;;;;13.63;6.23;;;8.40;99.90;;;;;;5062485;28;20310;-49
2022/12/22 14:19:23;;;;;;;11.13;6.67;;;8.40;99.90;;;;;;5062464;28;20270;-50
2022/12/22 14:22:02;;;;;;;14.07;6.70;;;8.40;99.90;;;;;;5063257;28;20702;-50
2022/12/22 14:24:35;;;;;;;13.53;7.03;;;8.40;99.90;;;;;;5064668;28;20223;-50
2022/12/22 14:27:15;;;;;;;11.70;6.33;;;8.30;99.90;;;;;;5059919;28;20664;-52
2022/12/22 14:29:44;;;;;;;12.90;6.77;;;8.30;99.90;;;;;;5061840;28;20231;-49
2022/12/22 14:32:36;;;;;;;12.67;7.53;;;8.30;99.90;;;;;;5062367;28;20672;-51
2022/12/22 14:35:14;;;;;;;15.10;7.70;;;8.20;99.90;;;;;;5062371;28;20255;-54
2022/12/22 14:37:42;;;;;;;12.67;7.40;;;8.20;99.90;;;;;;5062279;28;20227;-51
2022/12/22 14:40:28;;;;;;;13.77;7.23;;;8.20;99.90;;;;;;5063331;28;20223;-50
2022/12/22 14:43:00;;;;;;;15.43;7.30;;;8.10;99.90;;;;;;5067292;28;20219;-52
2022/12/22 14:45:29;;;;;;;16.43;7.77;;;8.10;99.90;;;;;;5059667;28;20224;-51
2022/12/22 14:47:57;;;;;;;18.10;8.03;;;8.10;99.90;;;;;;5063534;28;20235;-50
2022/12/22 14:50:27;;;;;;;13.37;7.60;;;8.00;99.90;;;;;;5067992;28;20231;-49
2022/12/22 14:52:59;;;;;;;15.10;7.83;;;7.90;99.90;;;;;;5066172;28;20242;-50
2022/12/22 14:55:31;;;;;;;17.23;8.50;;;7.90;99.90;;;;;;5067246;28;20302;-51
2022/12/22 14:58:06;;;;;;;16.83;8.53;;;7.80;99.90;;;;;;5065150;28;20216;-50
2022/12/22 15:00:38;;;;;;;13.67;8.03;;;7.80;99.90;;;;;;5042498;28;20235;-51
2022/12/22 15:03:30;;;;;;;15.73;8.00;;;7.80;99.90;;;;;;5055822;28;20238;-52
2022/12/22 15:06:22;;;;;;;15.93;7.33;;;7.70;99.90;;;;;;5058961;28;20257;-50
2022/12/22 15:08:52;;;;;;;17.00;10.60;;;7.70;99.90;;;;;;5057602;28;20228;-50
2022/12/22 15:11:24;;;;;;;18.67;11.07;;;7.70;99.90;;;;;;5058171;28;20231;-48
2022/12/22 15:13:53;;;;;;;18.50;10.40;;;7.60;99.90;;;;;;5052140;28;20230;-51
2022/12/22 15:16:23;;;;;;;19.47;8.80;;;7.60;99.90;;;;;;5052393;28;20299;-50
2022/12/22 15:18:52;;;;;;;14.20;8.90;;;7.50;99.90;;;;;;5049751;28;20235;-51
2022/12/22 15:21:21;;;;;;;17.13;9.27;;;7.50;99.90;;;;;;5052840;28;20220;-52
2022/12/22 15:23:49;;;;;;;15.87;7.77;;;7.40;99.90;;;;;;5051929;28;20625;-49
2022/12/22 15:26:17;;;;;;;15.97;8.80;;;7.40;99.90;;;;;;5052264;28;20216;-52
2022/12/22 15:28:45;;;;;;;17.17;9.60;;;7.50;99.90;;;;;;5051368;28;20227;-52
2022/12/22 15:31:17;;;;;;;18.17;10.07;;;7.50;99.90;;;;;;5049506;28;20224;-50
2022/12/22 15:33:45;;;;;;;16.10;9.10;;;7.40;99.90;;;;;;5051281;28;20231;-51
2022/12/22 15:36:14;;;;;;;17.73;9.13;;;7.40;99.90;;;;;;5047199;28;20238;-52
2022/12/22 15:38:42;;;;;;;14.83;7.53;;;7.30;99.90;;;;;;5052536;28;20683;-51
2022/12/22 15:41:10;;;;;;;15.80;8.13;;;7.30;99.90;;;;;;5052150;28;20247;-51
2022/12/22 15:43:38;;;;;;;15.03;8.40;;;7.20;99.90;;;;;;5051955;28;20225;-52
2022/12/22 15:46:28;;;;;;;14.53;7.60;;;7.30;99.90;;;;;;5047193;28;20696;-52
2022/12/22 15:48:56;;;;;;;15.33;8.57;;;7.30;99.90;;;;;;5052762;28;20763;-50
2022/12/22 15:51:26;;;;;;;14.23;8.03;;;7.30;99.90;;;;;;5052408;28;20226;-52
2022/12/22 15:53:55;;;;;;;14.17;7.50;;;7.30;99.90;;;;;;5052341;28;20228;-52
2022/12/22 15:56:25;;;;;;;16.57;7.03;;;7.30;99.90;;;;;;5052980;28;20227;-51
2022/12/22 15:58:53;;;;;;;14.23;7.80;;;7.30;99.90;;;;;;5052449;28;20274;-52
2022/12/22 16:01:21;;;;;;;14.60;7.77;;;7.30;99.90;;;;;;5052260;28;20604;-51
2022/12/22 16:03:51;;;;;;;17.30;8.23;;;7.20;99.90;;;;;;5052467;28;20688;-51
2022/12/22 16:06:19;;;;;;;15.83;7.87;;;7.20;99.90;;;;;;5052657;28;20231;-48
2022/12/22 16:08:51;;;;;;;15.40;7.90;;;7.20;99.90;;;;;;5052077;28;20364;-51
2022/12/22 16:11:20;;;;;;;13.80;7.97;;;7.20;99.90;;;;;;5052415;28;20232;-49
2022/12/22 16:13:50;;;;;;;14.60;7.97;;;7.20;99.90;;;;;;5052105;28;20553;-50
2022/12/22 16:16:18;;;;;;;14.93;8.50;;;7.20;99.90;;;;;;5052364;28;20230;-50
2022/12/22 16:18:46;;;;;;;16.17;8.50;;;7.20;99.90;;;;;;5052292;28;20635;-51
2022/12/22 16:21:18;;;;;;;15.07;8.77;;;7.20;99.90;;;;;;5052447;28;20231;-50
2022/12/22 16:23:49;;;;;;;16.50;8.23;;;7.20;99.90;;;;;;5052245;28;20353;-53
2022/12/22 16:26:20;;;;;;;17.50;8.73;;;7.20;99.90;;;;;;5052361;28;20561;-51
2022/12/22 16:28:48;;;;;;;18.27;8.37;;;7.20;99.90;;;;;;5051565;28;20224;-51
2022/12/22 16:31:18;;;;;;;17.67;8.37;;;7.20;99.90;;;;;;5051503;28;20236;-49
2022/12/22 16:33:46;;;;;;;16.97;8.20;;;7.20;99.90;;;;;;5051793;28;20227;-51
2022/12/22 16:36:16;;;;;;;14.63;8.07;;;7.20;99.90;;;;;;5052275;28;20699;-52
2022/12/22 16:38:46;;;;;;;15.17;8.03;;;7.20;99.90;;;;;;5051866;28;20247;-50
2022/12/22 16:41:23;;;;;;;15.37;8.53;;;7.20;99.90;;;;;;5052282;28;20583;-51
2022/12/22 16:43:54;;;;;;;17.60;8.90;;;7.20;99.90;;;;;;5052097;28;20220;-52
2022/12/22 16:46:36;;;;;;;17.30;8.03;;;7.20;99.90;;;;;;5047539;28;20637;-52
2022/12/22 16:49:07;;;;;;;17.50;8.27;;;7.20;99.90;;;;;;5049100;28;20236;-48